Middleburg, Ohio
Current Conditions -  °F | °C
As of 9:13 AM on Thursday 30 Oct 2014 (Local Time) from KMRT Reporting Station
Clear Clear  
Wind Chill: 41°   Ceiling: Unl
Heat Index: 41°   Visibility: 10mi
Dew Point: 35°   Wind: 3mph
Humidity: 79%   Direction: 340°NNW
Pressure: 30.15"   Gusts: NA
Location:  40.29°N, 83.58°W
Report Text: KMRT 301313Z AUTO 34003KT 10SM CLR 05/02 A3015 RMK AO2 T00500017
Loading
Personal Weather Stations






























Interactive Weather Map
Tropical Storm Tracking
New forecast layout! Learn more

10-Day Weather Forecast

Advertisements
Track Severe Weather on mobile